Time;durP1;ratioP1;P1;durP2;ratioP2;P2;SDS_P1;SDS_P2;PMS_P1;PMS_P2;Temp;Humidity;BMP_temperature;BMP_pressure;BME280_temperature;BME280_humidity;BME280_pressure;Samples;Min_cycle;Max_cycle;Signal;HPM_P1;HPM_P2
2021/09/25 00:00:27;;;;;;;1.35;1.00;;;;;;;;;;10246185;28;20407;-64
2021/09/25 00:05:28;;;;;;;2.25;0.98;;;;;;;;;;10232727;28;20606;-63
2021/09/25 00:10:25;;;;;;;2.33;1.13;;;;;;;;;;10233303;28;20038;-65
2021/09/25 00:15:23;;;;;;;1.07;0.97;;;;;;;;;;10245405;28;20033;-64
2021/09/25 00:20:21;;;;;;;1.90;0.63;;;;;;;;;;10227123;28;20482;-64
2021/09/25 00:25:18;;;;;;;0.70;0.70;;;;;;;;;;10241731;28;20034;-65
2021/09/25 00:30:16;;;;;;;5.37;0.80;;;;;;;;;;10249903;28;20069;-63
2021/09/25 00:35:13;;;;;;;0.68;0.57;;;;;;;;;;10243111;28;20036;-63
2021/09/25 00:40:12;;;;;;;3.47;1.27;;;;;;;;;;10229797;28;20693;-66
2021/09/25 00:45:10;;;;;;;0.85;0.73;;;;;;;;;;10240323;28;20038;-64
2021/09/25 00:50:08;;;;;;;0.93;0.77;;;;;;;;;;10203401;28;20037;-64
2021/09/25 00:55:06;;;;;;;0.37;0.33;;;;;;;;;;10221246;28;20034;-63
2021/09/25 01:00:04;;;;;;;1.52;1.00;;;;;;;;;;10216039;28;20698;-62
2021/09/25 01:05:02;;;;;;;4.05;0.98;;;;;;;;;;10242462;28;20500;-62
2021/09/25 01:09:59;;;;;;;;;;;;;;;;;;10250376;28;20136;-63
2021/09/25 01:14:57;;;;;;;1.27;0.98;;;;;;;;;;10242439;28;20764;-66
2021/09/25 01:19:54;;;;;;;1.00;0.90;;;;;;;;;;10255150;28;20037;-63
2021/09/25 01:24:52;;;;;;;1.87;0.80;;;;;;;;;;10239631;28;20117;-64
2021/09/25 01:29:49;;;;;;;1.53;0.50;;;;;;;;;;10218910;28;20474;-67
2021/09/25 01:34:47;;;;;;;2.60;1.15;;;;;;;;;;10206561;28;20056;-63
2021/09/25 01:39:44;;;;;;;2.57;1.50;;;;;;;;;;10229059;28;20530;-66
2021/09/25 01:44:42;;;;;;;3.07;1.13;;;;;;;;;;10233973;28;20120;-63
2021/09/25 01:49:39;;;;;;;1.80;0.50;;;;;;;;;;10239205;28;20026;-63
2021/09/25 01:54:37;;;;;;;3.47;1.10;;;;;;;;;;10240356;28;20018;-63
2021/09/25 01:59:34;;;;;;;1.63;0.80;;;;;;;;;;10246842;28;20100;-62
2021/09/25 02:04:33;;;;;;;4.10;1.70;;;;;;;;;;10236412;28;20041;-65
2021/09/25 02:09:30;;;;;;;1.65;1.10;;;;;;;;;;10232225;28;20479;-64
2021/09/25 02:14:27;;;;;;;2.40;0.80;;;;;;;;;;10243012;28;20022;-63
2021/09/25 02:19:25;;;;;;;6.37;1.23;;;;;;;;;;10263452;28;20125;-63
2021/09/25 02:24:22;;;;;;;0.77;0.53;;;;;;;;;;10238759;28;20036;-64
2021/09/25 02:29:20;;;;;;;2.20;0.93;;;;;;;;;;10219894;28;20484;-65
2021/09/25 02:34:17;;;;;;;5.17;1.67;;;;;;;;;;10322977;28;20036;-63
2021/09/25 02:39:15;;;;;;;2.08;1.17;;;;;;;;;;10330715;28;20045;-63
2021/09/25 02:44:12;;;;;;;2.17;1.43;;;;;;;;;;10269810;28;20051;-64
2021/09/25 02:49:10;;;;;;;4.93;1.07;;;;;;;;;;10304280;28;20410;-63
2021/09/25 02:54:07;;;;;;;4.90;1.97;;;;;;;;;;10269658;28;20037;-62
2021/09/25 02:59:05;;;;;;;1.33;1.23;;;;;;;;;;10298170;28;20098;-64
2021/09/25 03:04:03;;;;;;;6.53;1.40;;;;;;;;;;10270055;28;20052;-61
2021/09/25 03:09:00;;;;;;;8.23;1.40;;;;;;;;;;10287113;28;20041;-63
2021/09/25 03:13:57;;;;;;;3.90;1.77;;;;;;;;;;10300557;28;20027;-66
2021/09/25 03:18:55;;;;;;;3.90;0.73;;;;;;;;;;10234894;28;20068;-63
2021/09/25 03:23:52;;;;;;;3.70;1.03;;;;;;;;;;10249971;28;20415;-63
2021/09/25 03:28:50;;;;;;;9.40;2.07;;;;;;;;;;10237757;28;20048;-62
2021/09/25 03:33:47;;;;;;;2.17;1.23;;;;;;;;;;10271306;28;20104;-64
2021/09/25 03:38:44;;;;;;;2.10;1.33;;;;;;;;;;10264947;28;20578;-62
2021/09/25 03:43:42;;;;;;;3.57;1.33;;;;;;;;;;10271187;28;20038;-62
2021/09/25 03:48:39;;;;;;;2.13;1.10;;;;;;;;;;10269118;28;20129;-64
2021/09/25 03:53:37;;;;;;;1.47;1.23;;;;;;;;;;10235624;28;20065;-65
2021/09/25 03:58:35;;;;;;;4.57;1.87;;;;;;;;;;10263334;28;20038;-64
2021/09/25 04:03:32;;;;;;;2.45;1.38;;;;;;;;;;10250451;28;20037;-62
2021/09/25 04:08:30;;;;;;;1.20;0.77;;;;;;;;;;10268953;28;20034;-63
2021/09/25 04:13:28;;;;;;;;;;;;;;;;;;10252500;28;20530;-62
2021/09/25 04:18:25;;;;;;;4.55;1.67;;;;;;;;;;10251390;28;20060;-66
2021/09/25 04:23:22;;;;;;;2.07;1.70;;;;;;;;;;10269873;28;20395;-63
2021/09/25 04:28:20;;;;;;;7.77;3.00;;;;;;;;;;10268385;28;20057;-63
2021/09/25 04:33:18;;;;;;;2.57;2.07;;;;;;;;;;10261366;28;20381;-63
2021/09/25 04:38:15;;;;;;;3.47;1.77;;;;;;;;;;10267663;28;20726;-62
2021/09/25 04:43:12;;;;;;;1.47;1.03;;;;;;;;;;10251048;28;20041;-63
2021/09/25 04:48:10;;;;;;;5.13;3.30;;;;;;;;;;10267228;28;20113;-63
2021/09/25 04:53:08;;;;;;;1.93;1.83;;;;;;;;;;10264266;28;20034;-65
2021/09/25 04:58:06;;;;;;;1.65;0.80;;;;;;;;;;10267446;28;20579;-64
2021/09/25 05:03:04;;;;;;;3.87;2.23;;;;;;;;;;10237330;28;20096;-64
2021/09/25 05:08:01;;;;;;;2.70;2.10;;;;;;;;;;10250256;28;20289;-63
2021/09/25 05:12:58;;;;;;;4.33;2.40;;;;;;;;;;10266243;28;20029;-66
2021/09/25 05:17:56;;;;;;;1.97;1.27;;;;;;;;;;10249845;28;20037;-63
2021/09/25 05:22:53;;;;;;;2.33;1.60;;;;;;;;;;10263486;28;20131;-64
2021/09/25 05:27:51;;;;;;;3.87;1.60;;;;;;;;;;10267012;28;20042;-62
2021/09/25 05:32:48;;;;;;;1.73;1.37;;;;;;;;;;10263459;28;20499;-63
2021/09/25 05:37:46;;;;;;;3.53;1.33;;;;;;;;;;10264367;28;20514;-67
2021/09/25 05:42:44;;;;;;;4.70;1.50;;;;;;;;;;10267171;28;20742;-63
2021/09/25 05:47:41;;;;;;;7.10;1.90;;;;;;;;;;10264676;28;20045;-63
2021/09/25 05:52:39;;;;;;;4.97;1.80;;;;;;;;;;10265938;28;20052;-62
2021/09/25 05:57:36;;;;;;;5.70;1.03;;;;;;;;;;10259175;28;20026;-62
2021/09/25 06:02:36;;;;;;;5.57;2.20;;;;;;;;;;10208165;28;20049;-63
2021/09/25 06:07:33;;;;;;;4.15;2.60;;;;;;;;;;10224305;28;20073;-64
2021/09/25 06:12:31;;;;;;;4.60;2.47;;;;;;;;;;10229010;28;20408;-64
2021/09/25 06:17:28;;;;;;;10.90;3.03;;;;;;;;;;10205901;28;20937;-64
2021/09/25 06:22:26;;;;;;;5.07;2.40;;;;;;;;;;10232507;28;20550;-64
2021/09/25 06:27:23;;;;;;;10.00;3.10;;;;;;;;;;10222569;28;20038;-62
2021/09/25 06:32:20;;;;;;;4.03;2.90;;;;;;;;;;10225673;28;20033;-69
2021/09/25 06:37:18;;;;;;;4.23;2.00;;;;;;;;;;10229401;28;20530;-65
2021/09/25 06:42:15;;;;;;;2.93;1.93;;;;;;;;;;10230073;28;20046;-65
2021/09/25 06:47:13;;;;;;;6.03;2.33;;;;;;;;;;10212157;28;20408;-66
2021/09/25 06:52:10;;;;;;;7.73;2.20;;;;;;;;;;10224002;28;20121;-66
2021/09/25 06:57:10;;;;;;;5.83;2.47;;;;;;;;;;10218153;28;20049;-65
2021/09/25 07:02:07;;;;;;;14.40;3.65;;;;;;;;;;10228122;28;20088;-67
2021/09/25 07:07:05;;;;;;;6.97;2.07;;;;;;;;;;10229581;28;20104;-66
2021/09/25 07:12:04;;;;;;;3.22;2.05;;;;;;;;;;10234692;28;20102;-68
2021/09/25 07:17:01;;;;;;;8.75;2.78;;;;;;;;;;10214065;28;20089;-69
2021/09/25 07:21:58;;;;;;;7.10;1.93;;;;;;;;;;10238379;28;20446;-65
2021/09/25 07:26:56;;;;;;;10.07;2.53;;;;;;;;;;10221796;28;20072;-66
2021/09/25 07:31:53;;;;;;;8.37;2.13;;;;;;;;;;10215474;28;20452;-65
2021/09/25 07:36:51;;;;;;;1.93;1.73;;;;;;;;;;10224327;28;20039;-66
2021/09/25 07:41:48;;;;;;;3.07;1.67;;;;;;;;;;10225525;28;20045;-67
2021/09/25 07:46:45;;;;;;;4.30;2.40;;;;;;;;;;10229906;28;20042;-69
2021/09/25 07:51:43;;;;;;;10.07;3.53;;;;;;;;;;10237683;28;20394;-65
2021/09/25 07:56:40;;;;;;;6.70;2.20;;;;;;;;;;10233984;28;20038;-65
2021/09/25 08:01:38;;;;;;;5.63;1.67;;;;;;;;;;10232535;28;20026;-69
2021/09/25 08:06:35;;;;;;;2.77;2.33;;;;;;;;;;10231228;28;20034;-66
2021/09/25 08:11:32;;;;;;;3.73;2.03;;;;;;;;;;10214232;28;20034;-66
2021/09/25 08:16:30;;;;;;;2.77;1.40;;;;;;;;;;10217075;28;20033;-66
2021/09/25 08:21:27;;;;;;;2.90;1.40;;;;;;;;;;10212967;28;20083;-64
2021/09/25 08:26:25;;;;;;;3.87;1.70;;;;;;;;;;10233887;28;20030;-65
2021/09/25 08:31:22;;;;;;;7.77;2.10;;;;;;;;;;10225170;28;20572;-65
2021/09/25 08:36:20;;;;;;;5.65;2.45;;;;;;;;;;10234211;28;20502;-66
2021/09/25 08:41:18;;;;;;;6.50;2.13;;;;;;;;;;10234130;28;20046;-66
2021/09/25 08:46:15;;;;;;;2.67;1.90;;;;;;;;;;10227781;28;21665;-66
2021/09/25 08:51:13;;;;;;;4.03;2.30;;;;;;;;;;10210797;28;20092;-66
2021/09/25 08:56:12;;;;;;;1.90;1.40;;;;;;;;;;10228661;28;20037;-66
2021/09/25 09:01:15;;;;;;;5.32;2.20;;;;;;;;;;10233142;28;20049;-66
2021/09/25 09:06:17;;;;;;;7.70;2.35;;;;;;;;;;10241128;28;20443;-66
2021/09/25 09:11:16;;;;;;;3.45;2.42;;;;;;;;;;10224853;28;20040;-66
2021/09/25 09:16:15;;;;;;;7.90;2.78;;;;;;;;;;10235067;28;20362;-64
2021/09/25 09:21:21;;;;;;;9.85;3.03;;;;;;;;;;10204780;28;20034;-63
2021/09/25 09:26:24;;;;;;;9.32;2.80;;;;;;;;;;10247011;28;20157;-63
2021/09/25 09:31:22;;;;;;;8.02;2.80;;;;;;;;;;10246647;28;20033;-63
2021/09/25 09:36:21;;;;;;;4.05;2.95;;;;;;;;;;10237485;28;20496;-64
2021/09/25 09:41:33;;;;;;;6.57;2.78;;;;;;;;;;10222017;28;20500;-64
2021/09/25 09:46:35;;;;;;;12.43;2.97;;;;;;;;;;10243192;28;20042;-63
2021/09/25 09:51:34;;;;;;;7.45;2.47;;;;;;;;;;10240278;28;20111;-64
2021/09/25 09:56:31;;;;;;;3.55;2.10;;;;;;;;;;10213321;28;20069;-66
2021/09/25 10:01:28;;;;;;;7.47;2.17;;;;;;;;;;10231933;28;20115;-67
2021/09/25 10:06:26;;;;;;;8.03;2.70;;;;;;;;;;10214744;28;20037;-67
2021/09/25 10:11:24;;;;;;;5.93;2.10;;;;;;;;;;10227100;28;20189;-67
2021/09/25 10:16:21;;;;;;;16.03;2.60;;;;;;;;;;10230909;28;20189;-68
2021/09/25 10:21:19;;;;;;;8.02;2.28;;;;;;;;;;10235477;28;20435;-67
2021/09/25 10:26:17;;;;;;;4.20;1.52;;;;;;;;;;10233526;28;20042;-66
2021/09/25 10:31:14;;;;;;;;;;;;;;;;;;10217624;28;20041;-63
2021/09/25 10:36:21;;;;;;;4.15;2.28;;;;;;;;;;10225561;28;19913;-66
2021/09/25 10:41:19;;;;;;;8.05;2.25;;;;;;;;;;10230965;28;20038;-68
2021/09/25 10:46:17;;;;;;;4.25;2.33;;;;;;;;;;10215488;28;20872;-66
2021/09/25 10:51:14;;;;;;;;;;;;;;;;;;10211777;28;20038;-65
2021/09/25 10:56:17;;;;;;;4.65;1.80;;;;;;;;;;10213532;28;19917;-66
2021/09/25 11:01:15;;;;;;;0.73;0.73;;;;;;;;;;10225365;28;20372;-66
2021/09/25 11:06:22;;;;;;;9.38;2.22;;;;;;;;;;10229807;28;20042;-66
2021/09/25 11:11:30;;;;;;;1.08;0.98;;;;;;;;;;10227940;28;20854;-65
2021/09/25 11:16:46;;;;;;;1.55;1.23;;;;;;;;;;10210920;28;20038;-66
2021/09/25 11:21:44;;;;;;;1.02;0.52;;;;;;;;;;10225186;28;20184;-66
2021/09/25 11:26:41;;;;;;;4.10;1.70;;;;;;;;;;10211973;28;20190;-66
2021/09/25 11:31:38;;;;;;;;;;;;;;;;;;10237151;28;20030;-66
2021/09/25 11:36:36;;;;;;;4.83;0.77;;;;;;;;;;10216146;28;19913;-67
2021/09/25 11:41:33;;;;;;;;;;;;;;;;;;10254782;28;20414;-66
2021/09/25 11:46:31;;;;;;;3.55;1.05;;;;;;;;;;10266995;28;19913;-67
2021/09/25 11:51:28;;;;;;;;;;;;;;;;;;10240255;28;20033;-66
2021/09/25 11:56:26;;;;;;;4.28;0.82;;;;;;;;;;10243786;28;19968;-66
2021/09/25 12:01:24;;;;;;;7.93;1.40;;;;;;;;;;10246812;28;20037;-65
2021/09/25 12:06:21;;;;;;;;;;;;;;;;;;10241913;28;20049;-68
2021/09/25 12:11:18;;;;;;;5.47;1.15;;;;;;;;;;10242109;28;20287;-66
2021/09/25 12:16:16;;;;;;;;;;;;;;;;;;10217483;28;20030;-67
2021/09/25 12:21:15;;;;;;;2.10;0.43;;;;;;;;;;10232166;28;19940;-65
2021/09/25 12:26:16;;;;;;;4.13;0.68;;;;;;;;;;10230275;28;20072;-67
2021/09/25 12:31:18;;;;;;;4.03;0.80;;;;;;;;;;10235668;28;20034;-65
2021/09/25 12:36:16;;;;;;;11.60;0.95;;;;;;;;;;10238267;28;20068;-67
2021/09/25 12:41:18;;;;;;;0.50;0.50;;;;;;;;;;10232475;28;20084;-66
2021/09/25 12:46:36;;;;;;;9.07;1.15;;;;;;;;;;10241403;28;20052;-69
2021/09/25 12:51:53;;;;;;;2.83;0.77;;;;;;;;;;10223718;28;20038;-67
2021/09/25 12:56:56;;;;;;;4.90;0.80;;;;;;;;;;10223916;28;20046;-67
2021/09/25 13:01:53;;;;;;;3.10;0.95;;;;;;;;;;10194806;28;20580;-66
2021/09/25 13:06:51;;;;;;;5.03;1.08;;;;;;;;;;10230360;28;20435;-66
2021/09/25 13:12:10;;;;;;;6.32;0.88;;;;;;;;;;10236626;28;20030;-66
2021/09/25 13:17:07;;;;;;;1.70;0.68;;;;;;;;;;10236460;28;20302;-65
2021/09/25 13:22:06;;;;;;;0.40;0.32;;;;;;;;;;10214966;28;20030;-68
2021/09/25 13:27:04;;;;;;;7.10;0.50;;;;;;;;;;10235781;28;20034;-66
2021/09/25 13:32:02;;;;;;;1.75;0.30;;;;;;;;;;10233422;28;20038;-66
2021/09/25 13:36:59;;;;;;;0.73;0.22;;;;;;;;;;10238856;28;20403;-66
2021/09/25 13:41:57;;;;;;;0.45;0.35;;;;;;;;;;10240701;28;20040;-68
2021/09/25 13:46:54;;;;;;;0.15;0.15;;;;;;;;;;10228781;28;20038;-65
2021/09/25 13:51:52;;;;;;;0.20;0.20;;;;;;;;;;10232124;28;20041;-66
2021/09/25 13:56:49;;;;;;;0.82;0.73;;;;;;;;;;10206214;28;20273;-65
2021/09/25 14:01:47;;;;;;;0.47;0.40;;;;;;;;;;10241973;28;20037;-64
2021/09/25 14:06:44;;;;;;;3.10;0.73;;;;;;;;;;10214512;28;20041;-64
2021/09/25 14:11:42;;;;;;;1.00;0.40;;;;;;;;;;10235508;28;20041;-66
2021/09/25 14:16:39;;;;;;;2.05;0.47;;;;;;;;;;10233060;28;20027;-67
2021/09/25 14:21:37;;;;;;;1.37;0.50;;;;;;;;;;10242371;28;20025;-64
2021/09/25 14:26:35;;;;;;;0.77;0.30;;;;;;;;;;10224048;28;20030;-65
2021/09/25 14:31:36;;;;;;;1.30;0.30;;;;;;;;;;10232510;28;20080;-65
2021/09/25 14:36:34;;;;;;;1.20;0.40;;;;;;;;;;10237253;28;20037;-66
2021/09/25 14:41:33;;;;;;;1.05;0.40;;;;;;;;;;10242298;28;20038;-66
2021/09/25 14:46:30;;;;;;;0.77;0.30;;;;;;;;;;10231518;28;20404;-68
2021/09/25 14:51:28;;;;;;;1.40;0.35;;;;;;;;;;10236485;28;20042;-66
2021/09/25 14:56:25;;;;;;;1.40;0.40;;;;;;;;;;10224177;28;20022;-65
2021/09/25 15:01:23;;;;;;;1.02;0.50;;;;;;;;;;10225220;28;20308;-68
2021/09/25 15:06:20;;;;;;;2.40;0.40;;;;;;;;;;10228503;28;20034;-64
2021/09/25 15:11:18;;;;;;;0.68;0.40;;;;;;;;;;10244725;28;20046;-67
2021/09/25 15:16:15;;;;;;;2.33;0.38;;;;;;;;;;10230014;28;20065;-67
2021/09/25 15:21:13;;;;;;;3.17;0.57;;;;;;;;;;10230329;28;20522;-66
2021/09/25 15:26:10;;;;;;;;;;;;;;;;;;10226807;28;20967;-68
2021/09/25 15:31:08;;;;;;;1.85;0.40;;;;;;;;;;10241296;28;20037;-66
2021/09/25 15:36:05;;;;;;;;;;;;;;;;;;10207533;28;20425;-66
2021/09/25 15:41:03;;;;;;;0.20;0.20;;;;;;;;;;10231478;28;19924;-66
2021/09/25 15:46:00;;;;;;;2.58;1.15;;;;;;;;;;10224219;28;20125;-66
2021/09/25 15:50:57;;;;;;;;;;;;;;;;;;10238236;28;20050;-66
2021/09/25 15:55:55;;;;;;;0.50;0.15;;;;;;;;;;10235003;28;19917;-66
2021/09/25 16:00:52;;;;;;;;;;;;;;;;;;10215538;28;20030;-67
2021/09/25 16:05:50;;;;;;;4.60;1.13;;;;;;;;;;10212379;28;19914;-67
2021/09/25 16:10:47;;;;;;;;;;;;;;;;;;10218463;28;20273;-66
2021/09/25 16:15:45;;;;;;;2.47;0.50;;;;;;;;;;10231848;28;19963;-66
2021/09/25 16:20:42;;;;;;;;;;;;;;;;;;10236508;28;20022;-69
2021/09/25 16:25:40;;;;;;;2.47;0.60;;;;;;;;;;10223571;28;20393;-64
2021/09/25 16:30:37;;;;;;;;;;;;;;;;;;10211272;28;20779;-67
2021/09/25 16:35:34;;;;;;;2.05;0.30;;;;;;;;;;10242277;28;19914;-68
2021/09/25 16:40:32;;;;;;;;;;;;;;;;;;10231398;28;20025;-66
2021/09/25 16:45:29;;;;;;;0.40;0.35;;;;;;;;;;10224111;28;19956;-68
2021/09/25 16:50:26;;;;;;;;;;;;;;;;;;10232695;28;20501;-66
2021/09/25 16:55:24;;;;;;;5.93;1.13;;;;;;;;;;10227537;28;19988;-68
2021/09/25 17:00:21;;;;;;;;;;;;;;;;;;10225755;28;20022;-65
2021/09/25 17:05:19;;;;;;;2.17;0.40;;;;;;;;;;10238838;28;19920;-66
2021/09/25 17:10:16;;;;;;;;;;;;;;;;;;10223922;28;20037;-69
2021/09/25 17:15:14;;;;;;;0.88;0.30;;;;;;;;;;10235683;28;19975;-67
2021/09/25 17:20:14;;;;;;;;;;;;;;;;;;10220592;28;20104;-66
2021/09/25 17:25:12;;;;;;;1.92;0.85;;;;;;;;;;10218222;28;19932;-66
2021/09/25 17:30:10;;;;;;;2.97;0.68;;;;;;;;;;10216700;28;20045;-64
2021/09/25 17:35:08;;;;;;;6.07;1.98;;;;;;;;;;10207710;28;20488;-64
2021/09/25 17:40:06;;;;;;;2.45;0.93;;;;;;;;;;10227844;28;20088;-66
2021/09/25 17:45:03;;;;;;;;;;;;;;;;;;10229723;28;20038;-68
2021/09/25 17:50:01;;;;;;;0.40;0.40;;;;;;;;;;10216993;28;19917;-68
2021/09/25 17:54:58;;;;;;;1.92;0.57;;;;;;;;;;10234985;28;20042;-66
2021/09/25 17:59:56;;;;;;;3.00;0.60;;;;;;;;;;10227237;28;20063;-68
2021/09/25 18:04:53;;;;;;;0.55;0.52;;;;;;;;;;10226187;28;20187;-65
2021/09/25 18:09:52;;;;;;;4.65;0.80;;;;;;;;;;10223912;28;20423;-64
2021/09/25 18:14:51;;;;;;;1.17;0.55;;;;;;;;;;10227160;28;20042;-64
2021/09/25 18:19:49;;;;;;;1.85;0.50;;;;;;;;;;10239928;28;20069;-65
2021/09/25 18:24:47;;;;;;;;;;;;;;;;;;10233642;28;20053;-65
2021/09/25 18:29:44;;;;;;;1.55;0.73;;;;;;;;;;10214872;28;19925;-66
2021/09/25 18:34:41;;;;;;;4.93;0.80;;;;;;;;;;10229672;28;20052;-65
2021/09/25 18:39:39;;;;;;;1.90;0.63;;;;;;;;;;10230664;28;20388;-68
2021/09/25 18:44:37;;;;;;;1.40;0.93;;;;;;;;;;10241233;28;20034;-65
2021/09/25 18:49:35;;;;;;;1.08;0.65;;;;;;;;;;10242343;28;20045;-70
2021/09/25 18:54:32;;;;;;;0.77;0.50;;;;;;;;;;10232315;28;20044;-65
2021/09/25 18:59:30;;;;;;;0.93;0.80;;;;;;;;;;10218553;28;20566;-65
2021/09/25 19:04:28;;;;;;;0.53;0.40;;;;;;;;;;10223598;28;20073;-66
2021/09/25 19:09:27;;;;;;;1.27;0.75;;;;;;;;;;10197242;28;20033;-66
2021/09/25 19:14:25;;;;;;;2.73;0.60;;;;;;;;;;10224527;28;20403;-65
2021/09/25 19:19:22;;;;;;;2.23;0.60;;;;;;;;;;10205648;28;20045;-68
2021/09/25 19:24:20;;;;;;;2.07;0.80;;;;;;;;;;10222678;28;20041;-67
2021/09/25 19:29:19;;;;;;;0.40;0.40;;;;;;;;;;10225610;28;20549;-65
2021/09/25 19:34:16;;;;;;;0.70;0.67;;;;;;;;;;10233720;28;20064;-67
2021/09/25 19:39:14;;;;;;;0.80;0.67;;;;;;;;;;10224508;28;20105;-64
2021/09/25 19:44:11;;;;;;;0.70;0.60;;;;;;;;;;10228479;28;20065;-65
2021/09/25 19:49:10;;;;;;;0.87;0.83;;;;;;;;;;10220874;28;20356;-65
2021/09/25 19:54:07;;;;;;;1.25;0.70;;;;;;;;;;10218223;28;20452;-66
2021/09/25 19:59:05;;;;;;;1.77;0.80;;;;;;;;;;10222315;28;20038;-65
2021/09/25 20:04:02;;;;;;;1.60;0.93;;;;;;;;;;10213653;28;20496;-66
2021/09/25 20:09:00;;;;;;;0.70;0.63;;;;;;;;;;10241833;28;20388;-67
2021/09/25 20:13:57;;;;;;;1.30;0.60;;;;;;;;;;10239323;28;20030;-64
2021/09/25 20:18:55;;;;;;;0.93;0.70;;;;;;;;;;10240228;28;20451;-66
2021/09/25 20:23:52;;;;;;;2.00;0.77;;;;;;;;;;10237270;28;20408;-64
2021/09/25 20:28:50;;;;;;;0.80;0.80;;;;;;;;;;10245111;28;20037;-65
2021/09/25 20:33:47;;;;;;;0.83;0.50;;;;;;;;;;10240356;28;20034;-68
2021/09/25 20:38:45;;;;;;;2.47;0.70;;;;;;;;;;10217715;28;20045;-66
2021/09/25 20:43:42;;;;;;;3.00;0.70;;;;;;;;;;10199165;28;20041;-67
2021/09/25 20:48:39;;;;;;;1.87;0.80;;;;;;;;;;10213902;28;20030;-66
2021/09/25 20:53:37;;;;;;;0.80;0.70;;;;;;;;;;10224076;28;20133;-65
2021/09/25 20:58:37;;;;;;;2.57;0.87;;;;;;;;;;10236351;28;20365;-66
2021/09/25 21:03:34;;;;;;;1.27;0.70;;;;;;;;;;10227518;28;20124;-68
2021/09/25 21:08:31;;;;;;;1.80;0.73;;;;;;;;;;10215131;28;20180;-66
2021/09/25 21:13:29;;;;;;;0.70;0.70;;;;;;;;;;10233400;28;20084;-65
2021/09/25 21:18:26;;;;;;;2.53;0.83;;;;;;;;;;10237934;28;20040;-66
2021/09/25 21:23:25;;;;;;;1.27;0.63;;;;;;;;;;10232091;28;20415;-66
2021/09/25 21:28:24;;;;;;;7.57;3.78;;;;;;;;;;10211653;28;20038;-66
2021/09/25 21:33:24;;;;;;;4.43;3.80;;;;;;;;;;10230029;28;20034;-68
2021/09/25 21:38:22;;;;;;;9.02;3.83;;;;;;;;;;10235129;28;20049;-66
2021/09/25 21:43:19;;;;;;;4.45;3.08;;;;;;;;;;10215529;28;20356;-66
2021/09/25 21:48:17;;;;;;;4.03;3.43;;;;;;;;;;10206109;28;20045;-66
2021/09/25 21:53:14;;;;;;;3.80;3.40;;;;;;;;;;10210597;28;21182;-66
2021/09/25 21:58:12;;;;;;;5.57;3.03;;;;;;;;;;10242186;28;20093;-68
2021/09/25 22:03:09;;;;;;;3.67;3.30;;;;;;;;;;10228453;28;20038;-66
2021/09/25 22:08:07;;;;;;;5.13;3.37;;;;;;;;;;10216842;28;20077;-67
2021/09/25 22:13:04;;;;;;;3.83;3.27;;;;;;;;;;10235320;28;20141;-67
2021/09/25 22:18:01;;;;;;;2.83;2.60;;;;;;;;;;10222022;28;20030;-67
2021/09/25 22:22:59;;;;;;;3.87;3.23;;;;;;;;;;10224588;28;20614;-67
2021/09/25 22:27:56;;;;;;;0.23;0.23;;;;;;;;;;10229486;28;20097;-66
2021/09/25 22:32:56;;;;;;;0.40;0.33;;;;;;;;;;10223059;28;20088;-66
2021/09/25 22:37:54;;;;;;;0.32;0.30;;;;;;;;;;10223997;28;20045;-67
2021/09/25 22:42:51;;;;;;;0.90;0.50;;;;;;;;;;10230634;28;20038;-67
2021/09/25 22:47:50;;;;;;;0.47;0.47;;;;;;;;;;10238257;28;20037;-66
2021/09/25 22:52:48;;;;;;;;;;;;;;;;;;10217416;28;20405;-67
2021/09/25 22:57:45;;;;;;;0.35;0.20;;;;;;;;;;10233160;28;19917;-67
2021/09/25 23:02:43;;;;;;;8.73;0.57;;;;;;;;;;10231419;28;20042;-67
2021/09/25 23:07:41;;;;;;;0.40;0.40;;;;;;;;;;10228532;28;20049;-66
2021/09/25 23:12:38;;;;;;;0.33;0.33;;;;;;;;;;10230411;28;20036;-67
2021/09/25 23:17:36;;;;;;;0.82;0.47;;;;;;;;;;10226007;28;20092;-67
2021/09/25 23:22:33;;;;;;;5.10;3.00;;;;;;;;;;10208675;28;20399;-66
2021/09/25 23:27:31;;;;;;;3.60;2.80;;;;;;;;;;10232942;28;20046;-67
2021/09/25 23:32:28;;;;;;;4.60;3.27;;;;;;;;;;10203601;28;20038;-64
2021/09/25 23:37:26;;;;;;;5.17;2.80;;;;;;;;;;10226131;28;20044;-64
2021/09/25 23:42:24;;;;;;;3.93;3.07;;;;;;;;;;10243925;28;20033;-65
2021/09/25 23:47:21;;;;;;;3.22;2.50;;;;;;;;;;10237778;28;20321;-62
2021/09/25 23:52:19;;;;;;;3.47;3.17;;;;;;;;;;10255266;28;20037;-63
2021/09/25 23:57:16;;;;;;;8.43;3.30;;;;;;;;;;10253674;28;20041;-63
